createdAt,value
2022-08-28T00:02:14.355Z,54.15
2022-08-28T00:05:11.505Z,53.77
2022-08-28T00:08:12.445Z,53.87
2022-08-28T00:11:03.972Z,54.22
2022-08-28T00:13:52.935Z,54.01
2022-08-28T00:16:33.947Z,54.24
2022-08-28T00:19:18.875Z,54.69
2022-08-28T00:21:48.377Z,54.66
2022-08-28T00:24:38.866Z,54.66
2022-08-28T00:27:41.144Z,54.67
2022-08-28T00:30:21.714Z,54.90
2022-08-28T00:32:58.888Z,54.85
2022-08-28T00:35:36.793Z,54.96
2022-08-28T00:38:29.438Z,55.21
2022-08-28T00:41:04.986Z,55.42
2022-08-28T00:43:44.220Z,55.63
2022-08-28T00:46:31.375Z,55.57
2022-08-28T00:49:10.945Z,55.72
2022-08-28T00:52:12.418Z,55.75
2022-08-28T00:54:59.511Z,55.96
2022-08-28T00:57:45.261Z,55.82
2022-08-28T01:00:43.208Z,56.03
2022-08-28T01:03:37.792Z,56.00
2022-08-28T01:06:20.886Z,56.59
2022-08-28T01:09:05.682Z,56.64
2022-08-28T01:11:52.184Z,56.70
2022-08-28T01:14:34.401Z,57.12
2022-08-28T01:17:06.304Z,57.27
2022-08-28T01:19:48.758Z,57.43
2022-08-28T01:22:52.371Z,57.79
2022-08-28T01:25:28.829Z,57.98
2022-08-28T01:28:11.035Z,58.23
2022-08-28T01:30:48.110Z,58.76
2022-08-28T01:33:42.802Z,58.89
2022-08-28T01:36:27.100Z,58.87
2022-08-28T01:39:12.164Z,59.13
2022-08-28T01:42:01.266Z,59.30
2022-08-28T01:44:38.528Z,59.17
2022-08-28T01:47:14.905Z,59.71
2022-08-28T01:49:51.014Z,59.69
2022-08-28T01:52:43.475Z,59.81
2022-08-28T01:55:23.709Z,59.59
2022-08-28T01:58:20.455Z,59.65
2022-08-28T02:00:51.556Z,59.51
2022-08-28T02:03:25.746Z,59.74
2022-08-28T02:06:23.474Z,59.74
2022-08-28T02:09:01.376Z,59.68
2022-08-28T02:11:58.018Z,59.96
2022-08-28T02:14:45.959Z,59.93
2022-08-28T02:17:19.268Z,60.49
2022-08-28T02:20:27.154Z,60.50
2022-08-28T02:23:12.570Z,60.71
2022-08-28T02:26:12.442Z,61.01
2022-08-28T02:28:48.926Z,61.29
2022-08-28T02:31:19.311Z,61.46
2022-08-28T02:33:53.132Z,61.45
2022-08-28T02:36:35.876Z,61.54
2022-08-28T02:39:33.364Z,61.73
2022-08-28T02:42:17.291Z,61.75
2022-08-28T02:45:03.864Z,61.86
2022-08-28T02:47:40.917Z,61.96
2022-08-28T02:50:12.842Z,62.06
2022-08-28T02:53:01.663Z,62.54
2022-08-28T02:55:34.172Z,62.48
2022-08-28T02:58:26.929Z,62.71
2022-08-28T03:01:18.050Z,62.97
2022-08-28T03:03:48.941Z,62.65
2022-08-28T03:06:23.463Z,63.12
2022-08-28T03:09:12.935Z,63.05
2022-08-28T03:11:47.702Z,63.05
2022-08-28T03:14:29.872Z,63.11
2022-08-28T03:17:11.043Z,63.54
2022-08-28T03:19:49.453Z,63.24
2022-08-28T03:22:52.756Z,63.05
2022-08-28T03:25:33.520Z,63.04
2022-08-28T03:28:14.942Z,63.13
2022-08-28T03:30:51.320Z,63.19
2022-08-28T03:33:31.951Z,63.45
2022-08-28T03:36:09.918Z,63.46
2022-08-28T03:38:48.602Z,63.86
2022-08-28T03:41:36.767Z,64.52
2022-08-28T03:44:14.087Z,64.49
2022-08-28T03:46:48.619Z,64.69
2022-08-28T03:49:31.639Z,65.01
2022-08-28T03:52:05.044Z,65.06
2022-08-28T03:55:30.035Z,65.29
2022-08-28T03:58:14.591Z,65.91
2022-08-28T04:00:56.456Z,65.74
2022-08-28T04:03:44.998Z,65.77
2022-08-28T04:06:34.101Z,65.85
2022-08-28T04:09:16.305Z,66.05
2022-08-28T04:11:57.176Z,66.30
2022-08-28T04:14:55.809Z,66.00
2022-08-28T04:17:35.708Z,65.96
2022-08-28T04:20:15.873Z,66.02
2022-08-28T04:22:55.219Z,66.22
2022-08-28T04:25:40.469Z,66.11
2022-08-28T04:28:17.122Z,65.79
2022-08-28T04:30:57.664Z,65.94
2022-08-28T04:33:38.071Z,66.02
2022-08-28T04:36:19.144Z,65.93
2022-08-28T04:38:51.516Z,65.91
2022-08-28T04:41:48.153Z,66.10
2022-08-28T04:44:36.766Z,65.97
2022-08-28T04:47:06.835Z,66.30
2022-08-28T04:50:04.796Z,66.14
2022-08-28T04:52:39.757Z,66.40
2022-08-28T04:55:45.078Z,66.56
2022-08-28T04:58:38.489Z,66.72
2022-08-28T05:01:15.853Z,66.52
2022-08-28T05:04:06.472Z,66.77
2022-08-28T05:06:53.851Z,66.74
2022-08-28T05:09:41.611Z,66.90
2022-08-28T05:12:21.121Z,66.73
2022-08-28T05:14:55.906Z,66.72
2022-08-28T05:17:45.987Z,66.82
2022-08-28T05:20:23.755Z,66.53
2022-08-28T05:23:09.844Z,66.75
2022-08-28T05:26:04.157Z,66.71
2022-08-28T05:29:03.025Z,66.42
2022-08-28T05:32:13.729Z,66.26
2022-08-28T05:34:55.464Z,66.40
2022-08-28T05:37:37.370Z,66.13
2022-08-28T05:40:14.171Z,65.95
2022-08-28T05:43:07.584Z,66.13
2022-08-28T05:45:43.081Z,66.30
2022-08-28T05:48:21.068Z,66.26
2022-08-28T05:51:01.124Z,66.30
2022-08-28T05:53:51.911Z,66.28
2022-08-28T05:56:56.976Z,66.50
2022-08-28T05:59:55.548Z,66.57
2022-08-28T06:02:35.811Z,66.97
2022-08-28T06:05:17.398Z,66.77
2022-08-28T06:07:56.011Z,66.68
2022-08-28T06:10:32.976Z,66.56
2022-08-28T06:13:47.139Z,66.61
2022-08-28T06:16:44.769Z,66.56
2022-08-28T06:19:15.990Z,66.74
2022-08-28T06:21:59.574Z,66.58
2022-08-28T06:24:49.991Z,66.40
2022-08-28T06:27:21.540Z,66.25
2022-08-28T06:30:22.916Z,66.33
2022-08-28T06:33:00.001Z,66.01
2022-08-28T06:35:41.045Z,65.98
2022-08-28T06:38:20.686Z,65.44
2022-08-28T06:40:56.668Z,65.51
2022-08-28T06:43:36.389Z,65.44
2022-08-28T06:46:16.446Z,65.40
2022-08-28T06:48:46.566Z,65.08
2022-08-28T06:51:24.881Z,65.14
2022-08-28T06:54:23.253Z,64.92
2022-08-28T06:57:09.985Z,65.19
2022-08-28T06:59:47.496Z,64.96
2022-08-28T07:02:28.348Z,64.94
2022-08-28T07:05:09.901Z,64.76
2022-08-28T07:07:43.251Z,64.93
2022-08-28T07:10:24.694Z,64.93
2022-08-28T07:13:08.513Z,64.24
2022-08-28T07:15:45.425Z,64.34
2022-08-28T07:18:26.399Z,64.46
2022-08-28T07:21:03.060Z,64.07
2022-08-28T07:23:34.823Z,64.13
2022-08-28T07:26:26.406Z,63.55
2022-08-28T07:29:09.420Z,63.50
2022-08-28T07:31:52.058Z,63.01
2022-08-28T07:34:44.459Z,63.25
2022-08-28T07:37:55.105Z,62.79
2022-08-28T07:40:50.126Z,62.34
2022-08-28T07:43:47.123Z,62.07
2022-08-28T07:46:20.396Z,61.52
2022-08-28T07:49:10.518Z,61.71
2022-08-28T07:51:55.375Z,61.95
2022-08-28T07:54:26.606Z,62.01
2022-08-28T07:57:05.864Z,61.64
2022-08-28T08:00:06.385Z,61.26
2022-08-28T08:02:43.401Z,61.22
2022-08-28T08:05:21.895Z,60.98
2022-08-28T08:08:33.917Z,60.50
2022-08-28T08:11:13.888Z,59.33
2022-08-28T08:14:19.593Z,59.33
2022-08-28T08:17:14.146Z,59.43
2022-08-28T08:19:49.827Z,58.88
2022-08-28T08:22:36.597Z,58.82
2022-08-28T08:25:19.250Z,58.47
2022-08-28T08:28:04.204Z,57.75
2022-08-28T08:30:44.502Z,57.20
2022-08-28T08:33:38.079Z,56.95
2022-08-28T08:36:08.806Z,56.26
2022-08-28T08:38:48.580Z,55.20
2022-08-28T08:41:52.162Z,55.22
2022-08-28T08:44:47.631Z,55.43
2022-08-28T08:47:47.956Z,53.74
2022-08-28T08:50:39.310Z,54.18
2022-08-28T08:53:52.256Z,54.65
2022-08-28T08:57:02.905Z,54.51
2022-08-28T08:59:44.448Z,53.93
2022-08-28T09:02:34.253Z,53.15
2022-08-28T09:06:21.918Z,51.29
2022-08-28T09:09:13.728Z,51.66
2022-08-28T09:12:22.091Z,51.21
2022-08-28T09:15:24.524Z,50.46
2022-08-28T09:17:57.539Z,50.32
2022-08-28T09:20:44.732Z,49.78
2022-08-28T09:23:29.795Z,49.18
2022-08-28T09:26:33.501Z,49.24
2022-08-28T09:30:07.847Z,48.64
2022-08-28T09:33:13.276Z,47.35
2022-08-28T09:35:57.333Z,47.68
2022-08-28T09:38:34.852Z,46.72
2022-08-28T09:42:23.990Z,47.76
2022-08-28T09:45:28.334Z,48.39
2022-08-28T09:48:42.212Z,45.49
2022-08-28T09:51:40.778Z,46.18
2022-08-28T09:54:32.322Z,46.48
2022-08-28T09:57:31.754Z,46.17
2022-08-28T10:00:29.090Z,45.56
2022-08-28T10:03:42.194Z,43.91
2022-08-28T10:06:34.258Z,44.15
2022-08-28T10:09:37.114Z,43.07
2022-08-28T10:12:31.612Z,41.00
2022-08-28T10:15:45.624Z,40.66
2022-08-28T10:19:05.513Z,40.07
2022-08-28T10:22:08.336Z,40.19
2022-08-28T10:25:18.385Z,38.99
2022-08-28T10:28:28.852Z,39.20
2022-08-28T10:31:14.139Z,37.81
2022-08-28T10:34:08.849Z,36.99
2022-08-28T10:37:13.711Z,35.09
2022-08-28T10:40:10.130Z,35.12
2022-08-28T10:43:12.114Z,36.40
2022-08-28T10:46:44.591Z,35.60
2022-08-28T10:49:48.205Z,34.74
2022-08-28T10:52:45.488Z,35.99
2022-08-28T10:55:48.331Z,34.94
2022-08-28T10:58:40.047Z,35.57
2022-08-28T11:02:03.058Z,35.70
2022-08-28T11:05:01.582Z,35.15
2022-08-28T11:08:11.882Z,33.97
2022-08-28T11:12:06.394Z,33.22
2022-08-28T11:16:14.088Z,34.05
2022-08-28T11:20:00.443Z,31.05
2022-08-28T11:23:12.051Z,31.93
2022-08-28T11:30:12.884Z,30.93
2022-08-28T11:36:52.874Z,32.72
2022-08-28T11:40:34.475Z,32.77
2022-08-28T11:43:26.078Z,32.54
2022-08-28T11:46:44.086Z,32.72
2022-08-28T11:49:50.458Z,32.31
2022-08-28T11:52:56.879Z,32.05
2022-08-28T11:56:21.666Z,29.56
2022-08-28T12:00:02.412Z,29.05
2022-08-28T12:02:57.104Z,29.93
2022-08-28T12:09:12.621Z,26.74
2022-08-28T12:12:13.024Z,27.95
2022-08-28T12:18:39.008Z,27.99
2022-08-28T12:21:42.029Z,27.11
2022-08-28T12:24:32.135Z,27.55
2022-08-28T12:27:45.129Z,27.73
2022-08-28T12:31:02.135Z,27.78
2022-08-28T12:33:56.700Z,27.45
2022-08-28T12:36:52.072Z,28.03
2022-08-28T12:40:03.229Z,29.27
2022-08-28T12:42:55.258Z,29.19
2022-08-28T12:45:51.812Z,27.60
2022-08-28T12:48:54.881Z,28.09
2022-08-28T12:52:18.928Z,28.16
2022-08-28T13:02:06.071Z,25.89
2022-08-28T13:11:52.920Z,27.77
2022-08-28T13:14:54.387Z,27.74
2022-08-28T13:18:12.323Z,28.98
2022-08-28T13:21:16.565Z,28.54
2022-08-28T13:24:59.821Z,27.85
2022-08-28T13:28:16.560Z,27.69
2022-08-28T13:31:07.499Z,27.53
2022-08-28T13:34:13.118Z,27.26
2022-08-28T13:37:56.854Z,27.01
2022-08-28T13:41:10.580Z,27.65
2022-08-28T13:44:11.625Z,26.95
2022-08-28T13:47:20.296Z,27.44
2022-08-28T13:50:21.436Z,26.25
2022-08-28T13:53:11.433Z,25.64
2022-08-28T13:56:19.746Z,25.04
2022-08-28T13:59:55.590Z,26.03
2022-08-28T14:06:39.676Z,27.28
2022-08-28T14:09:38.777Z,26.88
2022-08-28T14:12:32.844Z,26.95
2022-08-28T14:15:25.461Z,27.67
2022-08-28T14:18:33.934Z,28.06
2022-08-28T14:21:46.381Z,28.39
2022-08-28T14:25:07.236Z,27.36
2022-08-28T14:28:07.175Z,28.40
2022-08-28T14:31:26.356Z,29.65
2022-08-28T14:34:45.418Z,29.41
2022-08-28T14:37:26.107Z,29.49
2022-08-28T14:40:59.553Z,29.76
2022-08-28T14:47:09.937Z,31.81
2022-08-28T14:50:13.510Z,31.80
2022-08-28T14:53:12.941Z,31.69
2022-08-28T14:56:24.122Z,31.98
2022-08-28T14:59:26.460Z,31.41
2022-08-28T15:02:35.020Z,31.66
2022-08-28T15:06:09.722Z,31.35
2022-08-28T15:09:10.576Z,30.61
2022-08-28T15:12:16.783Z,30.76
2022-08-28T15:15:39.779Z,30.65
2022-08-28T15:18:28.422Z,31.34
2022-08-28T15:21:37.194Z,35.35
2022-08-28T15:24:43.268Z,37.63
2022-08-28T15:31:49.241Z,39.94
2022-08-28T15:34:44.683Z,40.20
2022-08-28T15:37:58.043Z,40.19
2022-08-28T15:41:33.144Z,40.74
2022-08-28T15:44:32.955Z,40.68
2022-08-28T15:48:00.199Z,40.55
2022-08-28T15:54:58.331Z,40.74
2022-08-28T16:01:28.813Z,40.79
2022-08-28T16:04:36.413Z,41.13
2022-08-28T16:07:22.925Z,41.38
2022-08-28T16:10:44.237Z,41.76
2022-08-28T16:14:27.601Z,42.22
2022-08-28T16:18:39.724Z,42.64
2022-08-28T16:21:45.765Z,43.29
2022-08-28T16:25:23.306Z,43.52
2022-08-28T16:28:32.385Z,44.07
2022-08-28T16:31:26.657Z,44.26
2022-08-28T16:34:29.437Z,44.79
2022-08-28T16:37:41.505Z,45.03
2022-08-28T16:40:35.866Z,45.27
2022-08-28T16:43:34.005Z,45.66
2022-08-28T16:46:32.215Z,45.91
2022-08-28T16:49:23.699Z,46.19
2022-08-28T16:52:32.888Z,46.64
2022-08-28T16:55:35.466Z,46.77
2022-08-28T17:01:57.061Z,47.37
2022-08-28T17:04:38.567Z,47.50
2022-08-28T17:07:38.813Z,47.94
2022-08-28T17:10:33.546Z,48.50
2022-08-28T17:13:08.674Z,50.14
2022-08-28T17:15:59.987Z,52.17
2022-08-28T17:18:52.194Z,53.10
2022-08-28T17:21:52.830Z,52.49
2022-08-28T17:24:36.685Z,52.46
2022-08-28T17:28:16.202Z,52.41
2022-08-28T17:31:17.179Z,52.66
2022-08-28T17:33:48.111Z,53.35
2022-08-28T17:36:33.701Z,54.49
2022-08-28T17:39:16.863Z,55.91
2022-08-28T17:42:28.797Z,57.37
2022-08-28T17:45:20.252Z,58.28
2022-08-28T17:48:15.220Z,60.34
2022-08-28T17:51:02.907Z,61.32
2022-08-28T17:53:47.103Z,63.05
2022-08-28T17:56:47.565Z,63.43
2022-08-28T17:59:37.451Z,65.10
2022-08-28T18:02:32.999Z,65.21
2022-08-28T18:05:11.473Z,65.92
2022-08-28T18:07:57.989Z,66.92
2022-08-28T18:10:37.839Z,66.75
2022-08-28T18:13:34.842Z,67.02
2022-08-28T18:16:31.170Z,67.56
2022-08-28T18:19:20.146Z,67.83
2022-08-28T18:22:12.683Z,67.40
2022-08-28T18:24:56.610Z,67.87
2022-08-28T18:28:13.709Z,68.45
2022-08-28T18:31:11.559Z,69.29
2022-08-28T18:34:24.911Z,69.12
2022-08-28T18:37:26.914Z,69.17
2022-08-28T18:40:09.246Z,69.55
2022-08-28T18:42:44.507Z,70.26
2022-08-28T18:45:19.207Z,70.55
2022-08-28T18:47:55.858Z,71.56
2022-08-28T18:50:36.028Z,71.43
2022-08-28T18:53:14.940Z,71.34
2022-08-28T18:55:56.947Z,72.55
2022-08-28T18:58:33.298Z,72.05
2022-08-28T19:01:20.311Z,72.24
2022-08-28T19:04:16.339Z,72.14
2022-08-28T19:06:48.611Z,72.40
2022-08-28T19:09:20.755Z,72.62
2022-08-28T19:11:56.578Z,72.95
2022-08-28T19:14:29.620Z,72.32
2022-08-28T19:17:04.960Z,72.70
2022-08-28T19:19:52.216Z,72.81
2022-08-28T19:23:03.057Z,72.39
2022-08-28T19:25:39.641Z,72.60
2022-08-28T19:28:18.323Z,72.28
2022-08-28T19:30:54.435Z,72.24
2022-08-28T19:33:27.187Z,73.07
2022-08-28T19:36:00.421Z,73.04
2022-08-28T19:38:39.747Z,73.08
2022-08-28T19:41:15.949Z,73.24
2022-08-28T19:44:10.487Z,73.36
2022-08-28T19:47:16.774Z,73.31
2022-08-28T19:49:46.235Z,73.57
2022-08-28T19:52:20.956Z,73.89
2022-08-28T19:55:37.678Z,73.93
2022-08-28T19:58:21.248Z,74.45
2022-08-28T20:00:53.446Z,73.88
2022-08-28T20:03:39.801Z,74.42
2022-08-28T20:06:15.316Z,74.53
2022-08-28T20:08:56.223Z,74.75
2022-08-28T20:11:44.646Z,75.20
2022-08-28T20:14:20.859Z,75.73
2022-08-28T20:16:55.937Z,75.61
2022-08-28T20:19:27.461Z,75.35
2022-08-28T20:22:08.361Z,76.84
2022-08-28T20:24:59.640Z,76.27
2022-08-28T20:27:36.961Z,76.66
2022-08-28T20:30:26.239Z,77.02
2022-08-28T20:33:02.390Z,77.17
2022-08-28T20:35:54.039Z,77.12
2022-08-28T20:38:48.839Z,76.74
2022-08-28T20:41:35.316Z,77.08
2022-08-28T20:44:16.509Z,77.38
2022-08-28T20:46:51.062Z,77.64
2022-08-28T20:49:24.713Z,77.34
2022-08-28T20:52:05.118Z,77.42
2022-08-28T20:54:54.039Z,77.49
2022-08-28T20:58:20.478Z,77.43
2022-08-28T21:01:02.641Z,77.43
2022-08-28T21:03:35.982Z,77.39
2022-08-28T21:06:19.736Z,77.37
2022-08-28T21:09:05.723Z,77.39
2022-08-28T21:12:06.139Z,77.85
2022-08-28T21:14:43.107Z,77.87
2022-08-28T21:17:30.823Z,77.94
2022-08-28T21:20:25.349Z,77.49
2022-08-28T21:23:01.135Z,78.20
2022-08-28T21:25:41.657Z,78.43
2022-08-28T21:28:13.921Z,78.46
2022-08-28T21:30:47.864Z,78.51
2022-08-28T21:33:30.243Z,78.29
2022-08-28T21:36:04.357Z,78.75
2022-08-28T21:38:39.695Z,78.52
2022-08-28T21:41:28.064Z,79.09
2022-08-28T21:44:09.595Z,79.55
2022-08-28T21:46:46.508Z,79.03
2022-08-28T21:49:23.992Z,78.82
2022-08-28T21:52:01.692Z,78.54
2022-08-28T21:54:39.833Z,78.72
2022-08-28T21:57:12.372Z,78.97
2022-08-28T22:00:01.637Z,79.00
2022-08-28T22:02:39.318Z,79.37
2022-08-28T22:05:23.696Z,79.06
2022-08-28T22:08:16.796Z,79.13
2022-08-28T22:10:54.444Z,79.18
2022-08-28T22:13:23.967Z,79.13
2022-08-28T22:15:54.169Z,79.30
2022-08-28T22:18:43.231Z,79.05
2022-08-28T22:21:35.573Z,79.21
2022-08-28T22:24:15.021Z,79.10
2022-08-28T22:30:17.122Z,79.21
2022-08-28T22:32:47.928Z,79.04
2022-08-28T22:35:23.286Z,79.48
2022-08-28T22:38:07.386Z,79.85
2022-08-28T22:40:40.470Z,80.11
2022-08-28T22:43:17.603Z,81.27
2022-08-28T22:45:59.359Z,82.10
2022-08-28T22:48:44.069Z,82.58
2022-08-28T22:51:34.340Z,82.68
2022-08-28T22:54:13.096Z,84.96
2022-08-28T22:56:52.087Z,86.83
2022-08-28T22:59:38.149Z,87.22
2022-08-28T23:02:20.790Z,88.50
2022-08-28T23:05:05.152Z,88.62
2022-08-28T23:07:50.635Z,89.16
2022-08-28T23:10:48.242Z,88.71
2022-08-28T23:13:35.341Z,87.85
2022-08-28T23:16:24.294Z,86.85
2022-08-28T23:19:08.912Z,87.23
2022-08-28T23:22:00.344Z,87.44
2022-08-28T23:24:49.202Z,87.72
2022-08-28T23:27:36.132Z,87.36
2022-08-28T23:30:34.505Z,87.95
2022-08-28T23:33:26.642Z,87.98
2022-08-28T23:36:05.887Z,87.95
2022-08-28T23:38:46.939Z,87.92
2022-08-28T23:41:35.699Z,88.22
2022-08-28T23:44:10.839Z,88.42
2022-08-28T23:46:49.779Z,87.99
2022-08-28T23:49:26.919Z,89.23
2022-08-28T23:52:12.200Z,89.82
2022-08-28T23:55:12.546Z,89.36
2022-08-28T23:57:52.321Z,89.41
